createdAt,value
2023-04-04T00:28:22.547Z,0.97
2023-04-04T00:30:49.989Z,1.00
2023-04-04T00:33:17.199Z,0.93
2023-04-04T00:35:44.803Z,0.97
2023-04-04T00:38:12.175Z,1.10
2023-04-04T00:40:42.462Z,0.90
2023-04-04T00:43:09.596Z,0.90
2023-04-04T00:45:36.901Z,0.90
2023-04-04T00:48:04.185Z,1.17
2023-04-04T00:50:32.448Z,1.07
2023-04-04T00:53:00.374Z,1.27
2023-04-04T00:55:27.726Z,0.93
2023-04-04T00:57:55.003Z,0.93
2023-04-04T01:00:22.753Z,1.37
2023-04-04T01:02:50.782Z,1.30
2023-04-04T01:05:18.348Z,0.97
2023-04-04T01:07:45.329Z,1.03
2023-04-04T01:10:13.325Z,1.00
2023-04-04T01:12:42.284Z,1.50
2023-04-04T01:15:10.413Z,1.00
2023-04-04T01:17:37.829Z,1.10
2023-04-04T01:20:13.439Z,1.10
2023-04-04T01:22:49.517Z,0.90
2023-04-04T01:25:19.366Z,1.30
2023-04-04T01:27:52.681Z,1.30
2023-04-04T01:30:20.904Z,1.43
2023-04-04T01:33:20.629Z,0.87
2023-04-04T01:36:15.143Z,1.23
2023-04-04T01:38:51.471Z,1.07
2023-04-04T01:41:20.615Z,1.20
2023-04-04T01:43:54.594Z,1.10
2023-04-04T01:46:23.163Z,1.10
2023-04-04T01:48:51.028Z,1.57
2023-04-04T01:51:24.062Z,1.33
2023-04-04T01:53:52.592Z,1.10
2023-04-04T01:56:20.083Z,1.30
2023-04-04T01:58:47.406Z,1.10
2023-04-04T02:01:14.873Z,1.20
2023-04-04T02:03:42.481Z,1.80
2023-04-04T02:06:10.400Z,1.50
2023-04-04T02:08:38.432Z,1.67
2023-04-04T02:11:06.591Z,1.10
2023-04-04T02:13:33.598Z,1.17
2023-04-04T02:16:01.600Z,1.43
2023-04-04T02:18:28.657Z,1.53
2023-04-04T02:21:00.020Z,1.40
2023-04-04T02:23:27.151Z,1.13
2023-04-04T02:25:55.032Z,1.73
2023-04-04T02:28:22.728Z,1.43
2023-04-04T02:30:50.001Z,1.07
2023-04-04T02:33:17.904Z,1.33
2023-04-04T02:35:45.972Z,1.97
2023-04-04T02:38:13.040Z,1.53
2023-04-04T02:40:46.346Z,1.50
2023-04-04T02:43:13.710Z,1.80
2023-04-04T02:45:41.948Z,1.40
2023-04-04T02:48:36.397Z,1.27
2023-04-04T02:51:04.203Z,1.07
2023-04-04T02:53:32.577Z,1.40
2023-04-04T02:56:08.380Z,1.50
2023-04-04T02:58:35.434Z,0.97
2023-04-04T03:01:02.823Z,1.63
2023-04-04T03:03:35.139Z,1.97
2023-04-04T03:06:03.322Z,1.40
2023-04-04T03:08:30.599Z,1.40
2023-04-04T03:10:59.880Z,1.83
2023-04-04T03:13:27.517Z,1.70
2023-04-04T03:16:03.562Z,1.67
2023-04-04T03:18:41.087Z,1.87
2023-04-04T03:21:08.510Z,1.47
2023-04-04T03:23:35.778Z,1.73
2023-04-04T03:26:03.919Z,1.77
2023-04-04T03:28:31.453Z,1.53
2023-04-04T03:31:07.078Z,1.90
2023-04-04T03:33:43.017Z,1.73
2023-04-04T03:36:12.493Z,1.67
2023-04-04T03:38:40.149Z,2.00
2023-04-04T03:41:08.046Z,2.10
2023-04-04T03:43:35.328Z,1.20
2023-04-04T03:46:04.355Z,1.63
2023-04-04T03:48:31.793Z,2.00
2023-04-04T03:50:59.415Z,1.80
2023-04-04T03:53:27.094Z,1.50
2023-04-04T03:55:56.148Z,1.67
2023-04-04T03:58:23.781Z,1.40
2023-04-04T04:00:51.806Z,1.60
2023-04-04T04:03:18.905Z,1.20
2023-04-04T04:05:47.554Z,1.33
2023-04-04T04:08:14.534Z,1.83
2023-04-04T04:10:41.978Z,1.50
2023-04-04T04:13:09.304Z,1.60
2023-04-04T04:15:37.532Z,1.77
2023-04-04T04:18:07.986Z,1.67
2023-04-04T04:20:36.345Z,1.50
2023-04-04T04:23:03.346Z,2.03
2023-04-04T04:25:31.434Z,2.10
2023-04-04T04:28:15.415Z,1.70
2023-04-04T04:30:42.994Z,1.57
2023-04-04T04:33:10.718Z,1.70
2023-04-04T04:35:47.724Z,1.50
2023-04-04T04:38:14.899Z,2.27
2023-04-04T04:40:43.021Z,1.00
2023-04-04T04:43:18.862Z,1.57
2023-04-04T04:45:50.863Z,1.27
2023-04-04T04:48:18.214Z,1.37
2023-04-04T04:50:49.801Z,1.33
2023-04-04T04:53:27.193Z,1.73
2023-04-04T04:55:54.567Z,1.50
2023-04-04T04:58:24.709Z,1.77
2023-04-04T05:00:59.316Z,1.50
2023-04-04T05:03:35.141Z,1.80
2023-04-04T05:06:04.817Z,2.17
2023-04-04T05:08:32.428Z,1.77
2023-04-04T05:11:09.588Z,1.47
2023-04-04T05:13:37.526Z,1.50
2023-04-04T05:16:05.851Z,1.93
2023-04-04T05:18:34.384Z,1.60
2023-04-04T05:21:02.747Z,1.40
2023-04-04T05:23:30.413Z,1.33
2023-04-04T05:25:57.664Z,1.53
2023-04-04T05:28:28.499Z,1.33
2023-04-04T05:30:59.440Z,2.13
2023-04-04T05:33:29.654Z,1.53
2023-04-04T05:36:23.425Z,1.57
2023-04-04T05:38:56.100Z,1.70
2023-04-04T05:41:27.455Z,1.80
2023-04-04T05:44:00.165Z,1.50
2023-04-04T05:46:28.096Z,1.50
2023-04-04T05:48:55.356Z,1.63
2023-04-04T05:51:23.704Z,1.43
2023-04-04T05:53:58.557Z,1.40
2023-04-04T05:56:30.473Z,1.90
2023-04-04T05:58:59.645Z,1.57
2023-04-04T06:01:29.553Z,1.67
2023-04-04T06:04:00.639Z,1.50
2023-04-04T06:06:28.289Z,1.80
2023-04-04T06:08:56.013Z,1.80
2023-04-04T06:11:23.393Z,2.10
2023-04-04T06:13:52.913Z,1.93
2023-04-04T06:16:22.170Z,1.80
2023-04-04T06:18:49.359Z,1.60
2023-04-04T06:21:17.214Z,1.70
2023-04-04T06:23:44.731Z,1.67
2023-04-04T06:26:12.639Z,1.13
2023-04-04T06:28:49.543Z,1.30
2023-04-04T06:31:20.026Z,1.63
2023-04-04T06:33:49.059Z,1.43
2023-04-04T06:36:18.743Z,1.60
2023-04-04T06:38:47.497Z,1.43
2023-04-04T06:41:18.654Z,1.73
2023-04-04T06:43:48.710Z,1.07
2023-04-04T06:46:16.213Z,1.30
2023-04-04T06:48:43.511Z,1.10
2023-04-04T06:51:11.472Z,1.50
2023-04-04T06:53:42.846Z,1.40
2023-04-04T06:56:10.296Z,1.40
2023-04-04T06:58:39.145Z,1.10
2023-04-04T07:01:07.189Z,1.33
2023-04-04T07:03:34.169Z,1.73
2023-04-04T07:06:04.835Z,1.60
2023-04-04T07:08:36.230Z,1.87
2023-04-04T07:11:04.888Z,1.53
2023-04-04T07:13:31.921Z,1.60
2023-04-04T07:15:59.321Z,1.73
2023-04-04T07:18:26.338Z,1.37
2023-04-04T07:20:53.614Z,0.80
2023-04-04T07:23:20.684Z,1.50
2023-04-04T07:25:48.045Z,1.40
2023-04-04T07:28:14.892Z,1.30
2023-04-04T07:30:42.450Z,1.30
2023-04-04T07:33:09.616Z,1.00
2023-04-04T07:35:37.225Z,1.27
2023-04-04T07:38:05.098Z,1.47
2023-04-04T07:40:32.422Z,1.77
2023-04-04T07:42:59.332Z,1.10
2023-04-04T07:45:27.097Z,0.93
2023-04-04T07:47:54.108Z,1.00
2023-04-04T07:50:21.421Z,1.30
2023-04-04T07:53:15.904Z,0.93
2023-04-04T07:55:43.144Z,1.10
2023-04-04T07:58:10.112Z,1.10
2023-04-04T08:00:37.759Z,1.37
2023-04-04T08:03:05.104Z,1.30
2023-04-04T08:05:32.460Z,1.03
2023-04-04T08:07:59.434Z,1.27
2023-04-04T08:10:27.449Z,0.90
2023-04-04T08:12:54.412Z,1.03
2023-04-04T08:15:21.994Z,0.90
2023-04-04T08:17:50.200Z,1.40
2023-04-04T08:20:17.634Z,1.00
2023-04-04T08:22:44.610Z,0.93
2023-04-04T08:25:11.870Z,0.90
2023-04-04T08:27:44.115Z,0.80
2023-04-04T08:30:12.938Z,0.90
2023-04-04T08:32:41.303Z,1.20
2023-04-04T08:35:09.609Z,0.83
2023-04-04T08:37:36.848Z,0.63
2023-04-04T08:40:04.668Z,1.10
2023-04-04T08:42:33.475Z,1.00
2023-04-04T08:45:02.511Z,1.00
2023-04-04T08:47:31.695Z,1.23
2023-04-04T08:50:01.661Z,0.80
2023-04-04T08:52:28.773Z,0.90
2023-04-04T08:54:55.921Z,1.10
2023-04-04T08:57:23.130Z,1.07
2023-04-04T08:59:50.168Z,0.80
2023-04-04T09:02:27.609Z,1.23
2023-04-04T09:05:05.374Z,1.47
2023-04-04T09:07:38.635Z,1.07
2023-04-04T09:10:08.354Z,1.00
2023-04-04T09:12:37.759Z,0.60
2023-04-04T09:15:05.091Z,0.97
2023-04-04T09:17:32.517Z,0.87
2023-04-04T09:20:06.596Z,1.00
2023-04-04T09:22:33.935Z,0.70
2023-04-04T09:25:00.953Z,0.70
2023-04-04T09:27:28.173Z,0.60
2023-04-04T09:29:57.243Z,1.23
2023-04-04T09:32:26.245Z,0.80
2023-04-04T09:34:53.926Z,0.90
2023-04-04T09:37:21.338Z,1.17
2023-04-04T09:39:48.704Z,1.00
2023-04-04T09:42:16.738Z,1.07
2023-04-04T09:44:44.696Z,0.67
2023-04-04T09:47:33.416Z,1.00
2023-04-04T09:50:01.418Z,1.20
2023-04-04T09:52:33.238Z,0.60
2023-04-04T09:55:01.647Z,0.70
2023-04-04T09:57:33.643Z,0.97
2023-04-04T10:00:01.741Z,0.77
2023-04-04T10:02:31.104Z,1.00
2023-04-04T10:05:06.196Z,0.90
2023-04-04T10:07:34.736Z,1.03
2023-04-04T10:10:02.471Z,0.90
2023-04-04T10:12:30.621Z,0.90
2023-04-04T10:15:01.275Z,1.00
2023-04-04T10:17:48.340Z,0.87
2023-04-04T10:20:16.100Z,0.63
2023-04-04T10:22:45.222Z,0.90
2023-04-04T10:25:12.475Z,0.80
2023-04-04T10:27:39.736Z,1.10
2023-04-04T10:30:08.055Z,1.17
2023-04-04T10:32:41.251Z,0.90
2023-04-04T10:35:11.174Z,0.70
2023-04-04T10:37:44.391Z,0.90
2023-04-04T10:40:11.743Z,0.80
2023-04-04T10:42:47.002Z,0.50
2023-04-04T10:45:21.222Z,0.73
2023-04-04T10:47:49.646Z,0.80
2023-04-04T10:50:16.848Z,0.70
2023-04-04T10:52:44.646Z,0.90
2023-04-04T10:55:13.213Z,0.60
2023-04-04T10:57:47.337Z,0.80
2023-04-04T11:00:17.878Z,0.73
2023-04-04T11:02:57.790Z,1.00
2023-04-04T11:05:42.087Z,1.00
2023-04-04T11:08:10.998Z,1.07
2023-04-04T11:10:41.517Z,0.63
2023-04-04T11:13:22.160Z,0.90
2023-04-04T11:16:07.498Z,0.90
2023-04-04T11:18:45.248Z,1.03
2023-04-04T11:21:18.569Z,1.00
2023-04-04T11:23:49.001Z,0.80
2023-04-04T11:26:31.322Z,0.60
2023-04-04T11:29:03.794Z,0.70
2023-04-04T11:31:43.277Z,0.70
2023-04-04T11:34:15.226Z,0.90
2023-04-04T11:36:43.224Z,0.57
2023-04-04T11:39:33.757Z,0.77
2023-04-04T11:42:15.762Z,0.87
2023-04-04T11:44:49.326Z,0.77
2023-04-04T11:47:19.868Z,0.87
2023-04-04T11:49:47.979Z,0.77
2023-04-04T11:52:17.720Z,0.80
2023-04-04T11:54:46.928Z,0.90
2023-04-04T11:57:15.901Z,0.90
2023-04-04T11:59:46.087Z,0.90
2023-04-04T12:02:15.156Z,0.90
2023-04-04T12:04:45.867Z,0.90
2023-04-04T12:07:16.625Z,1.30
2023-04-04T12:09:44.476Z,0.90
2023-04-04T12:12:16.852Z,0.73
2023-04-04T12:14:44.735Z,0.77
2023-04-04T12:17:11.870Z,0.80
2023-04-04T12:19:40.441Z,1.07
2023-04-04T12:22:10.953Z,1.00
2023-04-04T12:24:38.736Z,1.10
2023-04-04T12:27:06.642Z,0.90
2023-04-04T12:29:36.395Z,0.90
2023-04-04T12:32:05.184Z,0.80
2023-04-04T12:34:33.811Z,0.83
2023-04-04T12:37:02.102Z,1.17
2023-04-04T12:39:30.137Z,0.90
2023-04-04T12:42:00.134Z,1.30
2023-04-04T12:44:28.284Z,0.90
2023-04-04T12:47:00.704Z,1.57
2023-04-04T12:49:32.477Z,1.20
2023-04-04T12:52:04.463Z,1.20
2023-04-04T12:54:34.066Z,0.93
2023-04-04T12:57:04.346Z,0.80
2023-04-04T12:59:33.670Z,0.90
2023-04-04T13:02:12.590Z,2.23
2023-04-04T13:04:40.660Z,4.00
2023-04-04T13:07:27.915Z,3.43
2023-04-04T13:10:04.715Z,1.10
2023-04-04T13:13:00.487Z,0.83
2023-04-04T13:15:50.722Z,1.00
2023-04-04T13:18:21.842Z,1.37
2023-04-04T13:20:50.091Z,1.00
2023-04-04T13:23:17.362Z,1.20
2023-04-04T13:25:44.786Z,1.13
2023-04-04T13:28:11.789Z,1.20
2023-04-04T13:30:43.503Z,0.83
2023-04-04T13:33:10.593Z,0.87
2023-04-04T13:35:38.959Z,1.40
2023-04-04T13:38:07.024Z,1.13
2023-04-04T13:40:34.610Z,1.00
2023-04-04T13:43:01.622Z,1.23
2023-04-04T13:45:28.997Z,0.93
2023-04-04T13:47:56.108Z,0.93
2023-04-04T13:50:24.183Z,1.00
2023-04-04T13:52:54.052Z,1.23
2023-04-04T13:55:21.980Z,1.03
2023-04-04T13:57:48.946Z,1.03
2023-04-04T14:00:16.972Z,1.03
2023-04-04T14:02:44.023Z,0.90
2023-04-04T14:05:11.915Z,1.07
2023-04-04T14:07:39.032Z,1.10
2023-04-04T14:10:07.112Z,1.10
2023-04-04T14:12:34.310Z,1.27
2023-04-04T14:15:01.547Z,1.00
2023-04-04T14:17:28.620Z,1.13
2023-04-04T14:19:56.228Z,0.80
2023-04-04T14:22:23.451Z,1.30
2023-04-04T14:24:50.786Z,1.10
2023-04-04T14:27:17.878Z,1.40
2023-04-04T14:29:45.165Z,1.13
2023-04-04T14:32:12.097Z,1.00
2023-04-04T14:34:39.659Z,1.53
2023-04-04T14:37:07.258Z,1.03
2023-04-04T14:39:34.512Z,1.13
2023-04-04T14:42:01.799Z,1.03
2023-04-04T14:44:29.340Z,0.80
2023-04-04T14:46:57.129Z,1.13
2023-04-04T14:49:24.369Z,0.87
2023-04-04T14:51:52.245Z,1.10
2023-04-04T14:54:19.723Z,0.90
2023-04-04T14:56:47.227Z,1.00
2023-04-04T14:59:14.474Z,1.07
2023-04-04T15:01:41.651Z,1.10
2023-04-04T15:04:09.321Z,1.00
2023-04-04T15:06:38.138Z,1.10
2023-04-04T15:09:06.112Z,1.73
2023-04-04T15:11:33.554Z,0.70
2023-04-04T15:14:01.084Z,0.97
2023-04-04T15:16:33.048Z,1.20
2023-04-04T15:19:01.022Z,1.30
2023-04-04T15:21:28.745Z,1.00
2023-04-04T15:23:56.213Z,1.40
2023-04-04T15:26:23.599Z,0.90
2023-04-04T15:28:50.723Z,0.93
2023-04-04T15:31:17.836Z,1.17
2023-04-04T15:33:45.018Z,1.10
2023-04-04T15:36:12.023Z,1.33
2023-04-04T15:38:39.984Z,1.30
2023-04-04T15:41:10.301Z,1.03
2023-04-04T15:43:37.625Z,1.57
2023-04-04T15:46:05.116Z,1.20
2023-04-04T15:48:32.530Z,1.03
2023-04-04T15:51:02.654Z,1.13
2023-04-04T15:53:30.924Z,1.27
2023-04-04T15:55:58.794Z,1.60
2023-04-04T15:58:26.613Z,1.20
2023-04-04T16:00:53.975Z,1.40
2023-04-04T16:03:21.701Z,1.20
2023-04-04T16:05:48.757Z,0.90
2023-04-04T16:08:16.220Z,1.17
2023-04-04T16:10:44.608Z,1.40
2023-04-04T16:13:13.777Z,1.03
2023-04-04T16:15:41.266Z,1.23
2023-04-04T16:18:09.150Z,1.50
2023-04-04T16:20:36.276Z,1.10
2023-04-04T16:23:03.656Z,1.40
2023-04-04T16:25:30.642Z,1.50
2023-04-04T16:27:57.938Z,1.10
2023-04-04T16:30:24.953Z,1.53
2023-04-04T16:32:52.332Z,1.10
2023-04-04T16:35:19.452Z,1.57
2023-04-04T16:37:47.424Z,1.33
2023-04-04T16:40:15.557Z,1.27
2023-04-04T16:42:42.929Z,1.20
2023-04-04T16:45:10.634Z,1.03
2023-04-04T16:47:38.029Z,1.20
2023-04-04T16:50:06.246Z,1.00
2023-04-04T16:52:33.633Z,1.23
2023-04-04T16:55:00.692Z,1.47
2023-04-04T16:57:27.985Z,1.10
2023-04-04T16:59:55.040Z,0.87
2023-04-04T17:02:22.253Z,1.13
2023-04-04T17:04:49.260Z,1.20
2023-04-04T17:07:16.958Z,1.43
2023-04-04T17:09:44.510Z,1.37
2023-04-04T17:12:13.014Z,1.37
2023-04-04T17:14:40.012Z,1.87
2023-04-04T17:17:08.966Z,1.20
2023-04-04T17:19:37.251Z,0.97
2023-04-04T17:22:04.529Z,0.90
2023-04-04T17:24:31.552Z,1.60
2023-04-04T17:27:01.466Z,1.20
2023-04-04T17:29:28.894Z,1.13
2023-04-04T17:31:57.187Z,1.10
2023-04-04T17:34:24.544Z,1.20
2023-04-04T17:36:53.043Z,1.13
2023-04-04T17:39:20.033Z,1.30
2023-04-04T17:41:47.917Z,1.50
2023-04-04T17:44:18.277Z,2.03
2023-04-04T17:46:46.275Z,2.00
2023-04-04T17:49:19.425Z,1.93
2023-04-04T17:51:48.391Z,1.50
2023-04-04T17:54:15.315Z,2.00
2023-04-04T17:56:46.087Z,2.67
2023-04-04T17:59:14.794Z,2.60
2023-04-04T18:01:42.403Z,2.40
2023-04-04T18:04:09.889Z,2.77
2023-04-04T18:06:40.153Z,2.00
2023-04-04T18:09:09.239Z,2.20
2023-04-04T18:11:36.970Z,2.77
2023-04-04T18:14:04.290Z,2.40
2023-04-04T18:16:38.879Z,2.53
2023-04-04T18:19:07.131Z,3.03
2023-04-04T18:21:34.413Z,2.07
2023-04-04T18:24:01.577Z,2.77
2023-04-04T18:26:28.894Z,2.77
2023-04-04T18:28:55.997Z,2.13
2023-04-04T18:31:23.282Z,3.10
2023-04-04T18:33:50.453Z,2.60
2023-04-04T18:36:17.820Z,2.40
2023-04-04T18:38:47.667Z,2.13
2023-04-04T18:41:17.373Z,1.83
2023-04-04T18:43:44.509Z,1.90
2023-04-04T18:46:12.226Z,2.03
2023-04-04T18:48:39.278Z,2.20
2023-04-04T18:51:06.780Z,2.40
2023-04-04T18:53:33.850Z,2.50
2023-04-04T18:56:01.080Z,2.77
2023-04-04T18:58:28.184Z,2.00
2023-04-04T19:00:58.453Z,3.33
2023-04-04T19:03:26.575Z,2.40
2023-04-04T19:05:54.078Z,1.90
2023-04-04T19:08:21.143Z,2.93
2023-04-04T19:10:51.034Z,2.30
2023-04-04T19:13:18.572Z,1.43
2023-04-04T19:15:46.981Z,1.23
2023-04-04T19:18:13.973Z,1.70
2023-04-04T19:20:42.281Z,2.10
2023-04-04T19:23:09.516Z,2.00
2023-04-04T19:25:36.967Z,1.90
2023-04-04T19:28:04.218Z,2.13
2023-04-04T19:30:44.907Z,1.50
2023-04-04T19:33:17.283Z,1.80
2023-04-04T19:35:53.717Z,1.70
2023-04-04T19:38:29.152Z,1.83
2023-04-04T19:41:36.196Z,2.17
2023-04-04T19:44:06.468Z,1.43
2023-04-04T19:46:34.617Z,2.07
2023-04-04T19:49:14.563Z,1.63
2023-04-04T19:51:49.663Z,1.43
2023-04-04T19:54:20.281Z,1.13
2023-04-04T19:56:49.733Z,1.20
2023-04-04T19:59:44.495Z,1.23
2023-04-04T20:02:30.515Z,1.50
2023-04-04T20:04:57.627Z,1.50
2023-04-04T20:07:25.096Z,1.73
2023-04-04T20:09:52.336Z,1.13
2023-04-04T20:12:24.138Z,1.53
2023-04-04T20:14:51.524Z,1.70
2023-04-04T20:17:19.282Z,1.23
2023-04-04T20:19:46.953Z,2.00
2023-04-04T20:22:14.500Z,1.77
2023-04-04T20:24:43.484Z,2.10
2023-04-04T20:27:11.551Z,1.13
2023-04-04T20:29:40.330Z,1.30
2023-04-04T20:32:08.374Z,1.20
2023-04-04T20:34:46.899Z,1.67
2023-04-04T20:37:28.766Z,1.50
2023-04-04T20:39:59.960Z,1.00
2023-04-04T20:42:31.929Z,1.50
2023-04-04T20:45:26.422Z,1.20
2023-04-04T20:47:55.264Z,1.70
2023-04-04T20:50:27.099Z,1.53
2023-04-04T20:53:03.087Z,1.47
2023-04-04T20:55:31.133Z,1.50
2023-04-04T20:58:30.934Z,1.10
2023-04-04T21:00:59.941Z,1.83
2023-04-04T21:03:30.560Z,1.07
2023-04-04T21:06:10.791Z,1.43
2023-04-04T21:08:39.485Z,1.17
2023-04-04T21:11:07.057Z,1.80
2023-04-04T21:13:36.960Z,1.57
2023-04-04T21:16:07.988Z,1.70
2023-04-04T21:18:36.253Z,1.40
2023-04-04T21:21:09.915Z,1.50
2023-04-04T21:23:39.849Z,1.63
2023-04-04T21:26:10.812Z,1.10
2023-04-04T21:28:45.027Z,1.53
2023-04-04T21:31:15.925Z,1.60
2023-04-04T21:33:43.807Z,1.87
2023-04-04T21:36:28.001Z,1.20
2023-04-04T21:39:00.957Z,1.67
2023-04-04T21:41:29.913Z,1.50
2023-04-04T21:43:59.141Z,1.87
2023-04-04T21:46:27.526Z,1.20
2023-04-04T21:48:55.356Z,1.53
2023-04-04T21:51:22.324Z,1.90
2023-04-04T21:53:50.625Z,1.83
2023-04-04T21:56:18.099Z,2.57
2023-04-04T21:58:45.588Z,1.93
2023-04-04T22:01:12.792Z,1.83
2023-04-04T22:03:40.730Z,1.50
2023-04-04T22:06:07.863Z,1.80
2023-04-04T22:08:35.122Z,2.00
2023-04-04T22:11:03.183Z,1.97
2023-04-04T22:13:33.941Z,2.07
2023-04-04T22:16:02.432Z,2.13
2023-04-04T22:18:30.817Z,1.60
2023-04-04T22:20:58.259Z,2.23
2023-04-04T22:23:25.615Z,2.50
2023-04-04T22:25:52.647Z,2.60
2023-04-04T22:28:24.935Z,2.10
2023-04-04T22:30:52.047Z,2.37
2023-04-04T22:33:19.294Z,2.30
2023-04-04T22:35:46.311Z,1.77
2023-04-04T22:38:14.567Z,1.87
2023-04-04T22:40:42.087Z,2.03
2023-04-04T22:43:09.731Z,1.73
2023-04-04T22:45:36.913Z,1.80
2023-04-04T22:48:04.323Z,1.90
2023-04-04T22:50:31.269Z,2.13
2023-04-04T22:52:58.855Z,1.93
2023-04-04T22:55:26.770Z,2.10
2023-04-04T22:57:54.051Z,1.80
2023-04-04T23:00:21.192Z,2.07
2023-04-04T23:02:49.924Z,2.83
2023-04-04T23:05:18.589Z,2.43
2023-04-04T23:07:46.541Z,2.10
2023-04-04T23:10:15.671Z,2.00
2023-04-04T23:12:43.206Z,2.30
2023-04-04T23:15:10.302Z,2.53
2023-04-04T23:17:38.905Z,2.10
2023-04-04T23:20:09.962Z,1.73
2023-04-04T23:22:37.997Z,2.90
2023-04-04T23:25:07.640Z,2.23
2023-04-04T23:27:35.045Z,2.40
2023-04-04T23:30:04.973Z,2.57
2023-04-04T23:32:32.684Z,1.67
2023-04-04T23:34:59.644Z,2.83
2023-04-04T23:37:26.880Z,2.00
2023-04-04T23:39:54.643Z,2.60
2023-04-04T23:42:21.904Z,1.53
2023-04-04T23:44:49.100Z,2.50
2023-04-04T23:47:16.266Z,2.37
2023-04-04T23:49:43.548Z,1.90
2023-04-04T23:52:10.841Z,2.03
2023-04-04T23:54:38.294Z,2.30
2023-04-04T23:57:05.406Z,2.33
2023-04-04T23:59:32.628Z,2.40
